sensor_id;sensor_type;location;lat;lon;timestamp;P1;durP1;ratioP1;P2;durP2;ratioP2
64487;SDS011;50864;45.050;39.014;2023-09-30T00:01:02;242.45;;;84.90;;
64487;SDS011;50864;45.050;39.014;2023-09-30T00:03:28;238.32;;;83.50;;
64487;SDS011;50864;45.050;39.014;2023-09-30T00:05:54;240.75;;;84.68;;
64487;SDS011;50864;45.050;39.014;2023-09-30T00:08:20;196.48;;;75.82;;
64487;SDS011;50864;45.050;39.014;2023-09-30T00:10:47;201.15;;;77.45;;
64487;SDS011;50864;45.050;39.014;2023-09-30T00:13:13;200.55;;;77.15;;
64487;SDS011;50864;45.050;39.014;2023-09-30T00:15:39;237.10;;;83.32;;
64487;SDS011;50864;45.050;39.014;2023-09-30T00:18:06;242.32;;;84.60;;
64487;SDS011;50864;45.050;39.014;2023-09-30T00:20:32;197.35;;;75.97;;
64487;SDS011;50864;45.050;39.014;2023-09-30T00:22:58;216.05;;;79.15;;
64487;SDS011;50864;45.050;39.014;2023-09-30T00:25:24;201.45;;;77.47;;
64487;SDS011;50864;45.050;39.014;2023-09-30T00:27:51;243.77;;;84.03;;
64487;SDS011;50864;45.050;39.014;2023-09-30T00:30:16;244.48;;;84.85;;
64487;SDS011;50864;45.050;39.014;2023-09-30T00:32:43;207.60;;;77.80;;
64487;SDS011;50864;45.050;39.014;2023-09-30T00:35:09;249.37;;;86.37;;
64487;SDS011;50864;45.050;39.014;2023-09-30T00:37:37;222.07;;;81.05;;
64487;SDS011;50864;45.050;39.014;2023-09-30T00:40:04;219.98;;;80.45;;
64487;SDS011;50864;45.050;39.014;2023-09-30T00:42:31;203.12;;;75.85;;
64487;SDS011;50864;45.050;39.014;2023-09-30T00:44:58;246.98;;;85.53;;
64487;SDS011;50864;45.050;39.014;2023-09-30T00:47:24;218.48;;;79.87;;
64487;SDS011;50864;45.050;39.014;2023-09-30T00:49:51;210.00;;;78.15;;
64487;SDS011;50864;45.050;39.014;2023-09-30T00:52:19;228.43;;;82.62;;
64487;SDS011;50864;45.050;39.014;2023-09-30T00:54:45;249.80;;;86.28;;
64487;SDS011;50864;45.050;39.014;2023-09-30T00:57:13;213.23;;;78.80;;
64487;SDS011;50864;45.050;39.014;2023-09-30T00:59:39;253.15;;;86.43;;
64487;SDS011;50864;45.050;39.014;2023-09-30T01:02:06;209.65;;;79.20;;
64487;SDS011;50864;45.050;39.014;2023-09-30T01:04:32;209.62;;;77.95;;
64487;SDS011;50864;45.050;39.014;2023-09-30T01:06:58;224.55;;;80.40;;
64487;SDS011;50864;45.050;39.014;2023-09-30T01:09:25;213.77;;;78.18;;
64487;SDS011;50864;45.050;39.014;2023-09-30T01:11:53;253.37;;;87.22;;
64487;SDS011;50864;45.050;39.014;2023-09-30T01:14:28;214.23;;;80.20;;
64487;SDS011;50864;45.050;39.014;2023-09-30T01:16:56;256.63;;;88.53;;
64487;SDS011;50864;45.050;39.014;2023-09-30T01:19:23;261.30;;;90.43;;
64487;SDS011;50864;45.050;39.014;2023-09-30T01:21:56;261.87;;;89.10;;
64487;SDS011;50864;45.050;39.014;2023-09-30T01:24:28;222.02;;;81.00;;
64487;SDS011;50864;45.050;39.014;2023-09-30T01:26:55;220.27;;;80.78;;
64487;SDS011;50864;45.050;39.014;2023-09-30T01:29:21;258.83;;;88.00;;
64487;SDS011;50864;45.050;39.014;2023-09-30T01:31:48;256.23;;;87.70;;
64487;SDS011;50864;45.050;39.014;2023-09-30T01:34:15;222.25;;;81.85;;
64487;SDS011;50864;45.050;39.014;2023-09-30T01:36:42;220.57;;;80.35;;
64487;SDS011;50864;45.050;39.014;2023-09-30T01:39:09;218.75;;;79.62;;
64487;SDS011;50864;45.050;39.014;2023-09-30T01:41:36;235.98;;;84.25;;
64487;SDS011;50864;45.050;39.014;2023-09-30T01:44:05;267.13;;;90.50;;
64487;SDS011;50864;45.050;39.014;2023-09-30T01:46:32;241.48;;;85.05;;
64487;SDS011;50864;45.050;39.014;2023-09-30T01:48:59;219.82;;;80.70;;
64487;SDS011;50864;45.050;39.014;2023-09-30T01:51:25;217.98;;;80.05;;
64487;SDS011;50864;45.050;39.014;2023-09-30T01:53:51;222.98;;;80.53;;
64487;SDS011;50864;45.050;39.014;2023-09-30T01:56:17;227.50;;;81.47;;
64487;SDS011;50864;45.050;39.014;2023-09-30T01:58:43;254.75;;;87.00;;
64487;SDS011;50864;45.050;39.014;2023-09-30T02:01:09;238.18;;;83.85;;
64487;SDS011;50864;45.050;39.014;2023-09-30T02:03:36;217.70;;;80.50;;
64487;SDS011;50864;45.050;39.014;2023-09-30T02:06:03;215.40;;;79.97;;
64487;SDS011;50864;45.050;39.014;2023-09-30T02:08:30;238.77;;;84.62;;
64487;SDS011;50864;45.050;39.014;2023-09-30T02:10:56;230.75;;;83.80;;
64487;SDS011;50864;45.050;39.014;2023-09-30T02:13:22;223.50;;;80.03;;
64487;SDS011;50864;45.050;39.014;2023-09-30T02:15:48;223.93;;;80.43;;
64487;SDS011;50864;45.050;39.014;2023-09-30T02:18:14;237.60;;;79.82;;
64487;SDS011;50864;45.050;39.014;2023-09-30T02:20:40;227.93;;;79.93;;
64487;SDS011;50864;45.050;39.014;2023-09-30T02:23:09;222.60;;;80.38;;
64487;SDS011;50864;45.050;39.014;2023-09-30T02:25:38;203.45;;;76.47;;
64487;SDS011;50864;45.050;39.014;2023-09-30T02:28:06;224.45;;;80.22;;
64487;SDS011;50864;45.050;39.014;2023-09-30T02:30:32;243.15;;;84.40;;
64487;SDS011;50864;45.050;39.014;2023-09-30T02:32:58;262.27;;;87.07;;
64487;SDS011;50864;45.050;39.014;2023-09-30T02:35:25;225.62;;;80.10;;
64487;SDS011;50864;45.050;39.014;2023-09-30T02:37:52;263.48;;;87.47;;
64487;SDS011;50864;45.050;39.014;2023-09-30T02:40:18;226.95;;;81.82;;
64487;SDS011;50864;45.050;39.014;2023-09-30T02:42:45;261.35;;;88.03;;
64487;SDS011;50864;45.050;39.014;2023-09-30T02:45:12;270.88;;;90.35;;
64487;SDS011;50864;45.050;39.014;2023-09-30T02:47:39;228.18;;;81.63;;
64487;SDS011;50864;45.050;39.014;2023-09-30T02:50:05;225.55;;;82.60;;
64487;SDS011;50864;45.050;39.014;2023-09-30T02:52:34;253.75;;;86.15;;
64487;SDS011;50864;45.050;39.014;2023-09-30T02:55:02;225.65;;;81.22;;
64487;SDS011;50864;45.050;39.014;2023-09-30T02:57:28;268.83;;;90.00;;
64487;SDS011;50864;45.050;39.014;2023-09-30T02:59:54;230.20;;;82.93;;
64487;SDS011;50864;45.050;39.014;2023-09-30T03:02:21;271.27;;;90.62;;
64487;SDS011;50864;45.050;39.014;2023-09-30T03:04:49;228.20;;;81.82;;
64487;SDS011;50864;45.050;39.014;2023-09-30T03:07:17;268.12;;;91.20;;
64487;SDS011;50864;45.050;39.014;2023-09-30T03:09:44;232.95;;;83.62;;
64487;SDS011;50864;45.050;39.014;2023-09-30T03:12:12;252.70;;;88.28;;
64487;SDS011;50864;45.050;39.014;2023-09-30T03:14:39;264.38;;;89.65;;
64487;SDS011;50864;45.050;39.014;2023-09-30T03:17:05;236.00;;;84.80;;
64487;SDS011;50864;45.050;39.014;2023-09-30T03:19:37;272.80;;;92.07;;
64487;SDS011;50864;45.050;39.014;2023-09-30T03:22:04;254.38;;;88.35;;
64487;SDS011;50864;45.050;39.014;2023-09-30T03:24:31;230.23;;;83.15;;
64487;SDS011;50864;45.050;39.014;2023-09-30T03:26:57;245.82;;;86.60;;
64487;SDS011;50864;45.050;39.014;2023-09-30T03:29:23;248.32;;;86.57;;
64487;SDS011;50864;45.050;39.014;2023-09-30T03:31:49;224.18;;;82.53;;
64487;SDS011;50864;45.050;39.014;2023-09-30T03:34:15;229.77;;;82.53;;
64487;SDS011;50864;45.050;39.014;2023-09-30T03:36:42;232.10;;;83.40;;
64487;SDS011;50864;45.050;39.014;2023-09-30T03:39:09;247.98;;;86.93;;
64487;SDS011;50864;45.050;39.014;2023-09-30T03:41:39;272.80;;;90.12;;
64487;SDS011;50864;45.050;39.014;2023-09-30T03:44:06;233.48;;;84.20;;
64487;SDS011;50864;45.050;39.014;2023-09-30T03:46:32;251.40;;;87.90;;
64487;SDS011;50864;45.050;39.014;2023-09-30T03:48:58;229.73;;;82.80;;
64487;SDS011;50864;45.050;39.014;2023-09-30T03:51:25;231.73;;;84.30;;
64487;SDS011;50864;45.050;39.014;2023-09-30T03:53:51;272.60;;;90.95;;
64487;SDS011;50864;45.050;39.014;2023-09-30T03:56:17;262.08;;;88.12;;
64487;SDS011;50864;45.050;39.014;2023-09-30T03:58:44;266.12;;;89.97;;
64487;SDS011;50864;45.050;39.014;2023-09-30T04:01:10;265.83;;;88.53;;
64487;SDS011;50864;45.050;39.014;2023-09-30T04:03:37;265.80;;;87.22;;
64487;SDS011;50864;45.050;39.014;2023-09-30T04:06:06;230.70;;;79.85;;
64487;SDS011;50864;45.050;39.014;2023-09-30T04:08:32;265.87;;;89.35;;
64487;SDS011;50864;45.050;39.014;2023-09-30T04:10:59;262.60;;;88.12;;
64487;SDS011;50864;45.050;39.014;2023-09-30T04:13:26;216.15;;;80.20;;
64487;SDS011;50864;45.050;39.014;2023-09-30T04:15:52;219.35;;;80.97;;
64487;SDS011;50864;45.050;39.014;2023-09-30T04:18:19;233.73;;;81.28;;
64487;SDS011;50864;45.050;39.014;2023-09-30T04:20:47;235.60;;;83.12;;
64487;SDS011;50864;45.050;39.014;2023-09-30T04:23:13;223.55;;;80.53;;
64487;SDS011;50864;45.050;39.014;2023-09-30T04:25:40;206.75;;;78.32;;
64487;SDS011;50864;45.050;39.014;2023-09-30T04:28:08;218.75;;;79.72;;
64487;SDS011;50864;45.050;39.014;2023-09-30T04:30:34;219.32;;;80.65;;
64487;SDS011;50864;45.050;39.014;2023-09-30T04:33:00;211.12;;;78.87;;
64487;SDS011;50864;45.050;39.014;2023-09-30T04:35:29;196.40;;;76.03;;
64487;SDS011;50864;45.050;39.014;2023-09-30T04:37:56;207.77;;;77.78;;
64487;SDS011;50864;45.050;39.014;2023-09-30T04:40:26;229.87;;;82.10;;
64487;SDS011;50864;45.050;39.014;2023-09-30T04:42:53;205.62;;;76.93;;
64487;SDS011;50864;45.050;39.014;2023-09-30T04:45:26;201.05;;;75.47;;
64487;SDS011;50864;45.050;39.014;2023-09-30T04:47:53;201.30;;;75.37;;
64487;SDS011;50864;45.050;39.014;2023-09-30T04:50:21;182.02;;;72.82;;
64487;SDS011;50864;45.050;39.014;2023-09-30T04:52:48;221.48;;;79.12;;
64487;SDS011;50864;45.050;39.014;2023-09-30T04:55:15;189.23;;;74.03;;
64487;SDS011;50864;45.050;39.014;2023-09-30T04:57:42;221.82;;;80.45;;
64487;SDS011;50864;45.050;39.014;2023-09-30T05:00:12;178.10;;;71.28;;
64487;SDS011;50864;45.050;39.014;2023-09-30T05:02:47;173.55;;;71.15;;
64487;SDS011;50864;45.050;39.014;2023-09-30T05:05:14;168.45;;;68.55;;
64487;SDS011;50864;45.050;39.014;2023-09-30T05:07:40;181.37;;;72.78;;
64487;SDS011;50864;45.050;39.014;2023-09-30T05:10:10;208.23;;;77.43;;
64487;SDS011;50864;45.050;39.014;2023-09-30T05:12:39;179.40;;;71.57;;
64487;SDS011;50864;45.050;39.014;2023-09-30T05:15:13;204.68;;;76.53;;
64487;SDS011;50864;45.050;39.014;2023-09-30T05:17:44;202.27;;;76.07;;
64487;SDS011;50864;45.050;39.014;2023-09-30T05:20:11;154.48;;;66.22;;
64487;SDS011;50864;45.050;39.014;2023-09-30T05:22:38;190.85;;;74.82;;
64487;SDS011;50864;45.050;39.014;2023-09-30T05:27:37;212.90;;;77.22;;
64487;SDS011;50864;45.050;39.014;2023-09-30T05:30:05;173.65;;;69.22;;
64487;SDS011;50864;45.050;39.014;2023-09-30T05:32:35;153.10;;;64.87;;
64487;SDS011;50864;45.050;39.014;2023-09-30T05:35:05;145.98;;;64.50;;
64487;SDS011;50864;45.050;39.014;2023-09-30T05:37:41;189.73;;;71.43;;
64487;SDS011;50864;45.050;39.014;2023-09-30T05:40:09;184.85;;;70.65;;
64487;SDS011;50864;45.050;39.014;2023-09-30T05:42:49;154.18;;;66.28;;
64487;SDS011;50864;45.050;39.014;2023-09-30T05:45:15;194.15;;;73.93;;
64487;SDS011;50864;45.050;39.014;2023-09-30T05:47:42;187.35;;;73.12;;
64487;SDS011;50864;45.050;39.014;2023-09-30T05:50:09;182.52;;;71.70;;
64487;SDS011;50864;45.050;39.014;2023-09-30T05:52:40;143.27;;;62.03;;
64487;SDS011;50864;45.050;39.014;2023-09-30T05:55:06;164.77;;;66.32;;
64487;SDS011;50864;45.050;39.014;2023-09-30T05:57:32;180.18;;;68.62;;
64487;SDS011;50864;45.050;39.014;2023-09-30T05:59:59;154.48;;;65.07;;
64487;SDS011;50864;45.050;39.014;2023-09-30T06:02:25;177.32;;;69.05;;
64487;SDS011;50864;45.050;39.014;2023-09-30T06:04:51;171.40;;;68.62;;
64487;SDS011;50864;45.050;39.014;2023-09-30T06:07:19;178.85;;;72.05;;
64487;SDS011;50864;45.050;39.014;2023-09-30T06:09:46;143.35;;;63.67;;
64487;SDS011;50864;45.050;39.014;2023-09-30T06:12:16;126.12;;;58.47;;
64487;SDS011;50864;45.050;39.014;2023-09-30T06:14:42;165.05;;;65.57;;
64487;SDS011;50864;45.050;39.014;2023-09-30T06:17:09;124.78;;;59.20;;
64487;SDS011;50864;45.050;39.014;2023-09-30T06:19:35;125.35;;;59.47;;
64487;SDS011;50864;45.050;39.014;2023-09-30T06:22:03;118.40;;;57.42;;
64487;SDS011;50864;45.050;39.014;2023-09-30T06:24:29;136.57;;;61.95;;
64487;SDS011;50864;45.050;39.014;2023-09-30T06:26:55;158.80;;;66.37;;
64487;SDS011;50864;45.050;39.014;2023-09-30T06:29:22;115.80;;;56.63;;
64487;SDS011;50864;45.050;39.014;2023-09-30T06:31:48;117.70;;;56.70;;
64487;SDS011;50864;45.050;39.014;2023-09-30T06:34:14;137.68;;;60.88;;
64487;SDS011;50864;45.050;39.014;2023-09-30T06:36:40;120.22;;;56.95;;
64487;SDS011;50864;45.050;39.014;2023-09-30T06:39:06;118.78;;;57.22;;
64487;SDS011;50864;45.050;39.014;2023-09-30T06:41:33;120.72;;;57.70;;
64487;SDS011;50864;45.050;39.014;2023-09-30T06:43:59;108.07;;;54.90;;
64487;SDS011;50864;45.050;39.014;2023-09-30T06:46:26;111.43;;;55.95;;
64487;SDS011;50864;45.050;39.014;2023-09-30T06:48:52;135.60;;;60.75;;
64487;SDS011;50864;45.050;39.014;2023-09-30T06:51:18;129.27;;;59.35;;
64487;SDS011;50864;45.050;39.014;2023-09-30T06:53:44;109.65;;;54.05;;
64487;SDS011;50864;45.050;39.014;2023-09-30T06:56:11;146.23;;;61.25;;
64487;SDS011;50864;45.050;39.014;2023-09-30T06:58:38;110.28;;;54.95;;
64487;SDS011;50864;45.050;39.014;2023-09-30T07:01:04;111.70;;;55.70;;
64487;SDS011;50864;45.050;39.014;2023-09-30T07:03:31;108.68;;;53.47;;
64487;SDS011;50864;45.050;39.014;2023-09-30T07:05:58;145.60;;;61.78;;
64487;SDS011;50864;45.050;39.014;2023-09-30T07:08:28;103.78;;;53.25;;
64487;SDS011;50864;45.050;39.014;2023-09-30T07:10:58;106.85;;;52.65;;
64487;SDS011;50864;45.050;39.014;2023-09-30T07:13:25;103.28;;;52.42;;
64487;SDS011;50864;45.050;39.014;2023-09-30T07:15:52;145.23;;;61.03;;
64487;SDS011;50864;45.050;39.014;2023-09-30T07:18:18;101.28;;;53.28;;
64487;SDS011;50864;45.050;39.014;2023-09-30T07:20:44;95.45;;;50.63;;
64487;SDS011;50864;45.050;39.014;2023-09-30T07:23:11;135.85;;;59.15;;
64487;SDS011;50864;45.050;39.014;2023-09-30T07:25:39;93.93;;;51.13;;
64487;SDS011;50864;45.050;39.014;2023-09-30T07:28:05;96.40;;;50.85;;
64487;SDS011;50864;45.050;39.014;2023-09-30T07:30:37;97.78;;;50.47;;
64487;SDS011;50864;45.050;39.014;2023-09-30T07:33:04;118.35;;;55.47;;
64487;SDS011;50864;45.050;39.014;2023-09-30T07:35:32;95.20;;;49.83;;
64487;SDS011;50864;45.050;39.014;2023-09-30T07:37:59;91.05;;;50.12;;
64487;SDS011;50864;45.050;39.014;2023-09-30T07:40:26;86.78;;;47.58;;
64487;SDS011;50864;45.050;39.014;2023-09-30T07:42:53;117.80;;;54.08;;
64487;SDS011;50864;45.050;39.014;2023-09-30T07:45:20;83.28;;;47.53;;
64487;SDS011;50864;45.050;39.014;2023-09-30T07:47:47;80.10;;;45.53;;
64487;SDS011;50864;45.050;39.014;2023-09-30T07:50:13;83.82;;;47.58;;
64487;SDS011;50864;45.050;39.014;2023-09-30T07:52:39;87.22;;;47.05;;
64487;SDS011;50864;45.050;39.014;2023-09-30T07:55:06;114.70;;;53.75;;
64487;SDS011;50864;45.050;39.014;2023-09-30T07:57:33;92.47;;;50.25;;
64487;SDS011;50864;45.050;39.014;2023-09-30T07:59:59;85.95;;;47.97;;
64487;SDS011;50864;45.050;39.014;2023-09-30T08:02:28;126.93;;;56.20;;
64487;SDS011;50864;45.050;39.014;2023-09-30T08:04:59;88.03;;;48.65;;
64487;SDS011;50864;45.050;39.014;2023-09-30T08:07:28;121.68;;;55.55;;
64487;SDS011;50864;45.050;39.014;2023-09-30T08:09:53;100.12;;;51.65;;
64487;SDS011;50864;45.050;39.014;2023-09-30T08:12:20;94.32;;;50.60;;
64487;SDS011;50864;45.050;39.014;2023-09-30T08:14:46;128.87;;;57.22;;
64487;SDS011;50864;45.050;39.014;2023-09-30T08:17:12;125.47;;;56.65;;
64487;SDS011;50864;45.050;39.014;2023-09-30T08:19:38;126.95;;;57.20;;
64487;SDS011;50864;45.050;39.014;2023-09-30T08:22:05;133.95;;;57.38;;
64487;SDS011;50864;45.050;39.014;2023-09-30T08:24:33;100.70;;;50.75;;
64487;SDS011;50864;45.050;39.014;2023-09-30T08:26:59;104.68;;;51.97;;
64487;SDS011;50864;45.050;39.014;2023-09-30T08:29:26;99.30;;;51.17;;
64487;SDS011;50864;45.050;39.014;2023-09-30T08:31:52;126.28;;;55.70;;
64487;SDS011;50864;45.050;39.014;2023-09-30T08:34:18;136.05;;;58.05;;
64487;SDS011;50864;45.050;39.014;2023-09-30T08:36:46;119.47;;;55.08;;
64487;SDS011;50864;45.050;39.014;2023-09-30T08:39:12;104.43;;;50.97;;
64487;SDS011;50864;45.050;39.014;2023-09-30T08:41:38;102.20;;;51.80;;
64487;SDS011;50864;45.050;39.014;2023-09-30T08:44:04;104.12;;;51.13;;
64487;SDS011;50864;45.050;39.014;2023-09-30T08:46:31;101.25;;;51.30;;
64487;SDS011;50864;45.050;39.014;2023-09-30T08:49:03;116.35;;;54.22;;
64487;SDS011;50864;45.050;39.014;2023-09-30T08:51:31;109.63;;;53.10;;
64487;SDS011;50864;45.050;39.014;2023-09-30T08:53:57;122.47;;;56.17;;
64487;SDS011;50864;45.050;39.014;2023-09-30T08:56:28;104.32;;;52.35;;
64487;SDS011;50864;45.050;39.014;2023-09-30T08:58:56;144.32;;;59.83;;
64487;SDS011;50864;45.050;39.014;2023-09-30T09:01:30;138.18;;;58.25;;
64487;SDS011;50864;45.050;39.014;2023-09-30T09:03:57;108.00;;;51.95;;
64487;SDS011;50864;45.050;39.014;2023-09-30T09:06:26;104.70;;;51.55;;
64487;SDS011;50864;45.050;39.014;2023-09-30T09:08:53;130.10;;;56.40;;
64487;SDS011;50864;45.050;39.014;2023-09-30T09:11:19;129.55;;;54.28;;
64487;SDS011;50864;45.050;39.014;2023-09-30T09:13:50;95.32;;;47.88;;
64487;SDS011;50864;45.050;39.014;2023-09-30T09:16:22;127.65;;;53.20;;
64487;SDS011;50864;45.050;39.014;2023-09-30T09:18:51;128.30;;;54.35;;
64487;SDS011;50864;45.050;39.014;2023-09-30T09:21:19;95.50;;;48.87;;
64487;SDS011;50864;45.050;39.014;2023-09-30T09:23:49;93.97;;;48.45;;
64487;SDS011;50864;45.050;39.014;2023-09-30T09:26:29;128.25;;;54.30;;
64487;SDS011;50864;45.050;39.014;2023-09-30T09:29:11;84.57;;;46.55;;
64487;SDS011;50864;45.050;39.014;2023-09-30T09:31:37;92.72;;;47.80;;
64487;SDS011;50864;45.050;39.014;2023-09-30T09:34:03;117.90;;;52.72;;
64487;SDS011;50864;45.050;39.014;2023-09-30T09:36:39;94.80;;;48.63;;
64487;SDS011;50864;45.050;39.014;2023-09-30T09:39:06;83.72;;;46.03;;
64487;SDS011;50864;45.050;39.014;2023-09-30T09:41:32;122.97;;;53.47;;
64487;SDS011;50864;45.050;39.014;2023-09-30T09:44:15;93.40;;;48.47;;
64487;SDS011;50864;45.050;39.014;2023-09-30T09:46:52;126.25;;;54.25;;
64487;SDS011;50864;45.050;39.014;2023-09-30T09:49:19;111.43;;;51.45;;
64487;SDS011;50864;45.050;39.014;2023-09-30T09:51:47;98.62;;;46.05;;
64487;SDS011;50864;45.050;39.014;2023-09-30T09:54:17;74.55;;;40.35;;
64487;SDS011;50864;45.050;39.014;2023-09-30T09:59:16;97.82;;;48.03;;
64487;SDS011;50864;45.050;39.014;2023-09-30T10:01:42;123.28;;;54.17;;
64487;SDS011;50864;45.050;39.014;2023-09-30T10:04:13;87.95;;;46.50;;
64487;SDS011;50864;45.050;39.014;2023-09-30T10:06:40;75.20;;;43.22;;
64487;SDS011;50864;45.050;39.014;2023-09-30T10:09:11;89.05;;;47.08;;
64487;SDS011;50864;45.050;39.014;2023-09-30T10:11:41;109.28;;;48.78;;
64487;SDS011;50864;45.050;39.014;2023-09-30T10:14:08;84.32;;;45.58;;
64487;SDS011;50864;45.050;39.014;2023-09-30T10:19:16;82.12;;;45.45;;
64487;SDS011;50864;45.050;39.014;2023-09-30T10:24:56;120.00;;;52.10;;
64487;SDS011;50864;45.050;39.014;2023-09-30T10:35:20;91.47;;;47.13;;
64487;SDS011;50864;45.050;39.014;2023-09-30T10:37:48;82.00;;;43.47;;
64487;SDS011;50864;45.050;39.014;2023-09-30T10:42:53;135.90;;;56.40;;
64487;SDS011;50864;45.050;39.014;2023-09-30T10:46:10;120.47;;;50.40;;
64487;SDS011;50864;45.050;39.014;2023-09-30T10:51:15;84.37;;;44.42;;
64487;SDS011;50864;45.050;39.014;2023-09-30T10:53:46;81.80;;;43.75;;
64487;SDS011;50864;45.050;39.014;2023-09-30T10:56:32;61.60;;;38.75;;
64487;SDS011;50864;45.050;39.014;2023-09-30T10:59:00;83.70;;;43.85;;
64487;SDS011;50864;45.050;39.014;2023-09-30T11:01:36;101.87;;;48.28;;
64487;SDS011;50864;45.050;39.014;2023-09-30T11:04:04;101.62;;;47.47;;
64487;SDS011;50864;45.050;39.014;2023-09-30T11:06:34;71.15;;;39.47;;
64487;SDS011;50864;45.050;39.014;2023-09-30T11:09:05;74.32;;;41.05;;
64487;SDS011;50864;45.050;39.014;2023-09-30T11:11:43;74.12;;;40.70;;
64487;SDS011;50864;45.050;39.014;2023-09-30T11:14:30;111.62;;;49.85;;
64487;SDS011;50864;45.050;39.014;2023-09-30T11:19:34;106.95;;;46.03;;
64487;SDS011;50864;45.050;39.014;2023-09-30T11:22:02;99.15;;;45.65;;
64487;SDS011;50864;45.050;39.014;2023-09-30T11:24:30;72.72;;;41.88;;
64487;SDS011;50864;45.050;39.014;2023-09-30T11:26:58;103.15;;;47.53;;
64487;SDS011;50864;45.050;39.014;2023-09-30T11:29:24;69.28;;;39.97;;
64487;SDS011;50864;45.050;39.014;2023-09-30T11:31:55;93.90;;;45.25;;
64487;SDS011;50864;45.050;39.014;2023-09-30T11:34:35;101.25;;;45.97;;
64487;SDS011;50864;45.050;39.014;2023-09-30T11:37:08;106.87;;;47.90;;
64487;SDS011;50864;45.050;39.014;2023-09-30T11:39:35;92.00;;;43.55;;
64487;SDS011;50864;45.050;39.014;2023-09-30T11:42:01;74.60;;;40.95;;
64487;SDS011;50864;45.050;39.014;2023-09-30T11:44:44;98.80;;;46.72;;
64487;SDS011;50864;45.050;39.014;2023-09-30T11:47:13;102.65;;;47.95;;
64487;SDS011;50864;45.050;39.014;2023-09-30T11:49:43;108.97;;;48.67;;
64487;SDS011;50864;45.050;39.014;2023-09-30T11:52:11;91.47;;;45.03;;
64487;SDS011;50864;45.050;39.014;2023-09-30T11:54:39;94.68;;;47.05;;
64487;SDS011;50864;45.050;39.014;2023-09-30T11:57:09;79.00;;;43.97;;
64487;SDS011;50864;45.050;39.014;2023-09-30T11:59:46;73.47;;;41.85;;
64487;SDS011;50864;45.050;39.014;2023-09-30T12:02:17;68.35;;;40.90;;
64487;SDS011;50864;45.050;39.014;2023-09-30T12:04:45;70.65;;;40.33;;
64487;SDS011;50864;45.050;39.014;2023-09-30T12:07:15;69.47;;;40.00;;
64487;SDS011;50864;45.050;39.014;2023-09-30T12:09:41;78.18;;;42.85;;
64487;SDS011;50864;45.050;39.014;2023-09-30T12:12:08;79.35;;;42.22;;
64487;SDS011;50864;45.050;39.014;2023-09-30T12:14:40;47.35;;;34.17;;
64487;SDS011;50864;45.050;39.014;2023-09-30T12:17:10;72.37;;;41.17;;
64487;SDS011;50864;45.050;39.014;2023-09-30T12:19:47;68.55;;;40.63;;
64487;SDS011;50864;45.050;39.014;2023-09-30T12:22:14;71.57;;;41.03;;
64487;SDS011;50864;45.050;39.014;2023-09-30T12:24:40;100.97;;;47.20;;
64487;SDS011;50864;45.050;39.014;2023-09-30T12:27:06;65.07;;;38.67;;
64487;SDS011;50864;45.050;39.014;2023-09-30T12:29:33;70.95;;;40.08;;
64487;SDS011;50864;45.050;39.014;2023-09-30T12:32:03;79.28;;;38.72;;
64487;SDS011;50864;45.050;39.014;2023-09-30T12:34:31;69.72;;;39.15;;
64487;SDS011;50864;45.050;39.014;2023-09-30T12:36:59;92.12;;;44.53;;
64487;SDS011;50864;45.050;39.014;2023-09-30T12:39:25;85.57;;;39.97;;
64487;SDS011;50864;45.050;39.014;2023-09-30T12:41:51;77.82;;;36.42;;
64487;SDS011;50864;45.050;39.014;2023-09-30T12:44:18;60.50;;;34.50;;
64487;SDS011;50864;45.050;39.014;2023-09-30T12:46:47;65.28;;;35.85;;
64487;SDS011;50864;45.050;39.014;2023-09-30T12:49:16;45.08;;;29.70;;
64487;SDS011;50864;45.050;39.014;2023-09-30T12:51:44;64.28;;;35.45;;
64487;SDS011;50864;45.050;39.014;2023-09-30T12:54:13;86.90;;;39.90;;
64487;SDS011;50864;45.050;39.014;2023-09-30T12:56:42;62.62;;;36.40;;
64487;SDS011;50864;45.050;39.014;2023-09-30T12:59:11;65.45;;;36.90;;
64487;SDS011;50864;45.050;39.014;2023-09-30T13:01:38;63.28;;;36.35;;
64487;SDS011;50864;45.050;39.014;2023-09-30T13:04:22;60.95;;;35.25;;
64487;SDS011;50864;45.050;39.014;2023-09-30T13:06:51;65.10;;;37.30;;
64487;SDS011;50864;45.050;39.014;2023-09-30T13:09:21;90.75;;;41.17;;
64487;SDS011;50864;45.050;39.014;2023-09-30T13:11:52;62.53;;;35.67;;
64487;SDS011;50864;45.050;39.014;2023-09-30T13:14:25;66.50;;;37.60;;
64487;SDS011;50864;45.050;39.014;2023-09-30T13:16:53;80.87;;;38.00;;
64487;SDS011;50864;45.050;39.014;2023-09-30T13:19:23;65.18;;;36.63;;
64487;SDS011;50864;45.050;39.014;2023-09-30T13:21:54;70.12;;;39.10;;
64487;SDS011;50864;45.050;39.014;2023-09-30T13:24:26;106.37;;;46.20;;
64487;SDS011;50864;45.050;39.014;2023-09-30T13:26:59;71.78;;;39.90;;
64487;SDS011;50864;45.050;39.014;2023-09-30T13:29:26;96.60;;;42.83;;
64487;SDS011;50864;45.050;39.014;2023-09-30T13:31:55;72.93;;;40.00;;
64487;SDS011;50864;45.050;39.014;2023-09-30T13:34:24;100.43;;;44.53;;
64487;SDS011;50864;45.050;39.014;2023-09-30T13:36:51;102.43;;;45.42;;
64487;SDS011;50864;45.050;39.014;2023-09-30T13:39:17;101.93;;;45.38;;
64487;SDS011;50864;45.050;39.014;2023-09-30T13:41:44;110.25;;;48.60;;
64487;SDS011;50864;45.050;39.014;2023-09-30T13:44:13;104.03;;;45.95;;
64487;SDS011;50864;45.050;39.014;2023-09-30T13:46:39;101.82;;;46.78;;
64487;SDS011;50864;45.050;39.014;2023-09-30T13:49:10;106.55;;;47.58;;
64487;SDS011;50864;45.050;39.014;2023-09-30T13:51:38;81.10;;;42.80;;
64487;SDS011;50864;45.050;39.014;2023-09-30T13:54:07;77.82;;;41.22;;
64487;SDS011;50864;45.050;39.014;2023-09-30T13:56:34;92.93;;;42.28;;
64487;SDS011;50864;45.050;39.014;2023-09-30T14:01:35;128.23;;;53.30;;
64487;SDS011;50864;45.050;39.014;2023-09-30T14:04:02;133.52;;;54.90;;
64487;SDS011;50864;45.050;39.014;2023-09-30T14:06:34;72.85;;;42.03;;
64487;SDS011;50864;45.050;39.014;2023-09-30T14:09:01;86.25;;;44.97;;
64487;SDS011;50864;45.050;39.014;2023-09-30T14:11:30;90.10;;;46.13;;
64487;SDS011;50864;45.050;39.014;2023-09-30T14:13:57;119.70;;;52.58;;
64487;SDS011;50864;45.050;39.014;2023-09-30T14:16:26;117.75;;;52.10;;
64487;SDS011;50864;45.050;39.014;2023-09-30T14:18:55;132.80;;;54.30;;
64487;SDS011;50864;45.050;39.014;2023-09-30T14:21:22;94.78;;;47.72;;
64487;SDS011;50864;45.050;39.014;2023-09-30T14:23:59;103.30;;;49.80;;
64487;SDS011;50864;45.050;39.014;2023-09-30T14:26:28;106.55;;;50.65;;
64487;SDS011;50864;45.050;39.014;2023-09-30T14:28:54;93.90;;;47.42;;
64487;SDS011;50864;45.050;39.014;2023-09-30T14:31:26;93.15;;;47.17;;
64487;SDS011;50864;45.050;39.014;2023-09-30T14:33:52;140.12;;;56.03;;
64487;SDS011;50864;45.050;39.014;2023-09-30T14:36:20;98.53;;;47.38;;